Gamewell, North Carolina
Current Conditions -  °F | °C
As of 11:55 PM on Saturday 22 Nov 2014 (Local Time) from KMRN Reporting Station
Overcast Overcast  
Wind Chill: 41°   Ceiling: 4600
Heat Index: 41°   Visibility: 10mi
Dew Point: 27°   Wind: 0mph
Humidity: 58%   Direction: NA
Pressure: 30.34"   Gusts: NA
Location:  35.9726°N, 81.5331°W
Report Text: KMRN 230455Z AUTO 00000KT 10SM OVC046 05/M03 A3034 RMK AO2 T00491027
Loading
Personal Weather Stations






























Interactive Weather Map New forecast layout! Learn more

10-Day Weather Forecast

Advertisements
Track Severe Weather on mobile